SHT13H EGNT-EGLL
Flight info
| Callsign | SHT13H |
|---|---|
| Flight time | 0h 47m |
| Altitude | 27000 |
| Route | N0397F230 DCT NATEB P18 GASKO P16 RIBEL/N0403F250 UP16 CROFT/N0407F270 DCT NUGRA NUGRA2H |
| Aircraft | A320/M-SDE3FGIJ1KRWXY/SB1 |
Departure
| Time | 2026-05-07 15:43 |
|---|---|
| Airport | Newcastle International Airport (EGNT) |
Arrival
| Time | 2026-05-07 16:30 |
|---|---|
| Airport | London Heathrow Airport (EGLL) |
| Time | Latitude | Longitude | Altitude | Speed | Heading |
|---|---|---|---|---|---|
| 2026-05-07 14:23 | 55.03614 | -1.70944 | 275 ft | 0 kts | 274° |
| 2026-05-07 15:32 | 55.03613 | -1.70918 | 275 ft | 4 kts | 274° |
| 2026-05-07 15:32 | 55.03612 | -1.70879 | 275 ft | 4 kts | 282° |
| 2026-05-07 15:32 | 55.03600 | -1.70847 | 283 ft | 4 kts | 350° |
| 2026-05-07 15:33 | 55.03580 | -1.70846 | 278 ft | 0 kts | 4° |
| 2026-05-07 15:37 | 55.03583 | -1.70845 | 278 ft | 3 kts | 8° |
| 2026-05-07 15:37 | 55.03597 | -1.70763 | 275 ft | 10 kts | 95° |
| 2026-05-07 15:38 | 55.03591 | -1.70635 | 275 ft | 12 kts | 94° |
| 2026-05-07 15:38 | 55.03609 | -1.70475 | 276 ft | 15 kts | 55° |
| 2026-05-07 15:38 | 55.03725 | -1.70429 | 271 ft | 21 kts | 4° |
| 2026-05-07 15:38 | 55.03776 | -1.70246 | 269 ft | 21 kts | 92° |
| 2026-05-07 15:39 | 55.03774 | -1.69970 | 270 ft | 24 kts | 86° |
| 2026-05-07 15:39 | 55.03805 | -1.69661 | 270 ft | 27 kts | 76° |
| 2026-05-07 15:39 | 55.03882 | -1.69335 | 267 ft | 32 kts | 64° |
| 2026-05-07 15:39 | 55.03980 | -1.68959 | 264 ft | 33 kts | 65° |
| 2026-05-07 15:40 | 55.04079 | -1.68587 | 260 ft | 31 kts | 66° |
| 2026-05-07 15:40 | 55.04156 | -1.68303 | 257 ft | 27 kts | 65° |
| 2026-05-07 15:40 | 55.04243 | -1.67969 | 254 ft | 33 kts | 66° |
| 2026-05-07 15:40 | 55.04322 | -1.67671 | 250 ft | 19 kts | 62° |
| 2026-05-07 15:41 | 55.04330 | -1.67467 | 249 ft | 17 kts | 98° |
| 2026-05-07 15:41 | 55.04321 | -1.67416 | 248 ft | 0 kts | 116° |
| 2026-05-07 15:41 | 55.04313 | -1.67395 | 248 ft | 4 kts | 126° |
| 2026-05-07 15:42 | 55.04275 | -1.67367 | 249 ft | 8 kts | 173° |
| 2026-05-07 15:42 | 55.04216 | -1.67393 | 249 ft | 9 kts | 226° |
| 2026-05-07 15:42 | 55.04208 | -1.67417 | 249 ft | 0 kts | 242° |
| 2026-05-07 15:42 | 55.04186 | -1.67498 | 250 ft | 34 kts | 245° |
| 2026-05-07 15:43 | 55.03967 | -1.68318 | 258 ft | 109 kts | 245° |
| 2026-05-07 15:43 | 55.03598 | -1.69670 | 698 ft | 122 kts | 242° |
| 2026-05-07 15:43 | 55.03241 | -1.71018 | 1420 ft | 127 kts | 242° |
| 2026-05-07 15:43 | 55.02839 | -1.72521 | 1952 ft | 147 kts | 242° |
| 2026-05-07 15:44 | 55.02375 | -1.74259 | 2477 ft | 167 kts | 242° |
| 2026-05-07 15:44 | 55.01633 | -1.75893 | 3048 ft | 185 kts | 214° |
| 2026-05-07 15:44 | 55.00343 | -1.76685 | 3634 ft | 211 kts | 194° |
| 2026-05-07 15:44 | 54.98835 | -1.77411 | 4307 ft | 236 kts | 198° |
| 2026-05-07 15:45 | 54.97217 | -1.78309 | 5253 ft | 249 kts | 199° |
| 2026-05-07 15:45 | 54.95553 | -1.79253 | 6408 ft | 254 kts | 199° |
| 2026-05-07 15:45 | 54.93860 | -1.80208 | 7512 ft | 258 kts | 199° |
| 2026-05-07 15:45 | 54.92130 | -1.81170 | 8628 ft | 263 kts | 199° |
| 2026-05-07 15:46 | 54.88570 | -1.83121 | 10531 ft | 282 kts | 199° |
| 2026-05-07 15:46 | 54.86626 | -1.84183 | 10977 ft | 304 kts | 199° |
| 2026-05-07 15:46 | 54.84566 | -1.85302 | 11754 ft | 313 kts | 199° |
| 2026-05-07 15:47 | 54.82466 | -1.86436 | 12655 ft | 318 kts | 199° |
| 2026-05-07 15:47 | 54.80332 | -1.87585 | 13568 ft | 322 kts | 199° |
| 2026-05-07 15:47 | 54.78202 | -1.88727 | 14400 ft | 326 kts | 198° |
| 2026-05-07 15:47 | 54.76018 | -1.89892 | 15196 ft | 331 kts | 198° |
| 2026-05-07 15:48 | 54.73801 | -1.91071 | 15967 ft | 336 kts | 198° |
| 2026-05-07 15:48 | 54.71548 | -1.92274 | 16742 ft | 340 kts | 197° |
| 2026-05-07 15:48 | 54.69265 | -1.93493 | 17515 ft | 345 kts | 197° |
| 2026-05-07 15:48 | 54.66946 | -1.94728 | 18303 ft | 350 kts | 197° |
| 2026-05-07 15:49 | 54.64599 | -1.95978 | 19012 ft | 354 kts | 197° |
| 2026-05-07 15:49 | 54.62257 | -1.97220 | 19728 ft | 358 kts | 197° |
| 2026-05-07 15:49 | 54.59860 | -1.98494 | 20479 ft | 362 kts | 197° |
| 2026-05-07 15:49 | 54.57432 | -1.99784 | 21211 ft | 365 kts | 197° |
| 2026-05-07 15:50 | 54.54988 | -2.01079 | 21923 ft | 369 kts | 197° |
| 2026-05-07 15:50 | 54.52521 | -2.02382 | 22627 ft | 373 kts | 197° |
| 2026-05-07 15:50 | 54.50024 | -2.03699 | 23336 ft | 377 kts | 197° |
| 2026-05-07 15:50 | 54.47505 | -2.05030 | 23939 ft | 381 kts | 197° |
| 2026-05-07 15:51 | 54.44956 | -2.06375 | 24522 ft | 384 kts | 197° |
| 2026-05-07 15:51 | 54.42345 | -2.07419 | 25077 ft | 387 kts | 187° |
| 2026-05-07 15:51 | 54.39680 | -2.07891 | 25619 ft | 391 kts | 186° |
| 2026-05-07 15:51 | 54.36963 | -2.08356 | 26172 ft | 394 kts | 186° |
| 2026-05-07 15:52 | 54.34223 | -2.08816 | 26697 ft | 397 kts | 185° |
| 2026-05-07 15:52 | 54.31463 | -2.09274 | 26973 ft | 399 kts | 185° |
| 2026-05-07 15:52 | 54.28708 | -2.09733 | 27033 ft | 395 kts | 185° |
| 2026-05-07 15:52 | 54.25983 | -2.10190 | 27033 ft | 393 kts | 185° |
| 2026-05-07 15:53 | 54.23264 | -2.10649 | 27034 ft | 392 kts | 185° |
| 2026-05-07 15:53 | 54.20548 | -2.11112 | 27034 ft | 392 kts | 185° |
| 2026-05-07 15:53 | 54.17828 | -2.11571 | 27034 ft | 392 kts | 185° |
| 2026-05-07 15:53 | 54.15111 | -2.12025 | 27037 ft | 392 kts | 185° |
| 2026-05-07 15:54 | 54.12392 | -2.12482 | 27035 ft | 392 kts | 185° |
| 2026-05-07 15:54 | 54.09680 | -2.12938 | 27037 ft | 392 kts | 185° |
| 2026-05-07 15:54 | 54.06967 | -2.13391 | 27035 ft | 392 kts | 185° |
| 2026-05-07 15:54 | 54.04252 | -2.13846 | 27033 ft | 392 kts | 185° |
| 2026-05-07 15:55 | 54.01568 | -2.14299 | 27041 ft | 392 kts | 185° |
| 2026-05-07 15:55 | 53.98842 | -2.14759 | 27038 ft | 392 kts | 185° |
| 2026-05-07 15:55 | 53.96110 | -2.15218 | 27036 ft | 392 kts | 185° |
| 2026-05-07 15:55 | 53.93425 | -2.15667 | 27034 ft | 392 kts | 185° |
| 2026-05-07 15:56 | 53.90692 | -2.16120 | 27036 ft | 392 kts | 185° |
| 2026-05-07 15:56 | 53.87965 | -2.16566 | 27037 ft | 392 kts | 185° |
| 2026-05-07 15:56 | 53.85245 | -2.17009 | 27038 ft | 393 kts | 185° |
| 2026-05-07 15:56 | 53.82522 | -2.17457 | 27041 ft | 393 kts | 185° |
| 2026-05-07 15:57 | 53.79832 | -2.17900 | 27043 ft | 393 kts | 185° |
| 2026-05-07 15:57 | 53.77076 | -2.18355 | 27044 ft | 393 kts | 185° |
| 2026-05-07 15:57 | 53.74391 | -2.18802 | 27047 ft | 393 kts | 185° |
| 2026-05-07 15:57 | 53.71664 | -2.19260 | 27048 ft | 393 kts | 185° |
| 2026-05-07 15:58 | 53.68934 | -2.19717 | 27049 ft | 393 kts | 185° |
| 2026-05-07 15:58 | 53.66213 | -2.20163 | 27049 ft | 393 kts | 185° |
| 2026-05-07 15:58 | 53.63472 | -2.20606 | 27047 ft | 393 kts | 185° |
| 2026-05-07 15:58 | 53.60748 | -2.21046 | 27042 ft | 393 kts | 185° |
| 2026-05-07 15:59 | 53.58025 | -2.21486 | 27044 ft | 393 kts | 185° |
| 2026-05-07 15:59 | 53.55332 | -2.21924 | 27038 ft | 393 kts | 185° |
| 2026-05-07 15:59 | 53.52603 | -2.22372 | 27041 ft | 393 kts | 185° |
| 2026-05-07 15:59 | 53.49875 | -2.22821 | 27040 ft | 394 kts | 185° |
| 2026-05-07 16:00 | 53.47141 | -2.23269 | 27043 ft | 394 kts | 185° |
| 2026-05-07 16:00 | 53.44410 | -2.23714 | 27040 ft | 394 kts | 185° |
| 2026-05-07 16:00 | 53.41682 | -2.24157 | 27044 ft | 394 kts | 185° |
| 2026-05-07 16:00 | 53.38950 | -2.24600 | 27040 ft | 394 kts | 185° |
| 2026-05-07 16:01 | 53.36222 | -2.25044 | 27036 ft | 394 kts | 185° |
| 2026-05-07 16:01 | 53.33493 | -2.25481 | 27039 ft | 394 kts | 185° |
| 2026-05-07 16:01 | 53.30756 | -2.25848 | 27040 ft | 394 kts | 180° |
| 2026-05-07 16:01 | 53.28058 | -2.25222 | 27041 ft | 393 kts | 163° |
| 2026-05-07 16:02 | 53.25570 | -2.23316 | 27036 ft | 394 kts | 150° |
| 2026-05-07 16:02 | 53.23204 | -2.20980 | 27037 ft | 395 kts | 150° |
| 2026-05-07 16:02 | 53.20863 | -2.18640 | 27039 ft | 395 kts | 150° |
| 2026-05-07 16:02 | 53.18508 | -2.16279 | 27035 ft | 396 kts | 150° |
| 2026-05-07 16:03 | 53.16141 | -2.13913 | 27042 ft | 396 kts | 150° |
| 2026-05-07 16:03 | 53.13775 | -2.11560 | 27043 ft | 396 kts | 150° |
| 2026-05-07 16:03 | 53.11401 | -2.09203 | 27049 ft | 396 kts | 150° |
| 2026-05-07 16:03 | 53.09023 | -2.06870 | 27047 ft | 397 kts | 151° |
| 2026-05-07 16:04 | 53.06618 | -2.04609 | 27053 ft | 397 kts | 152° |
| 2026-05-07 16:04 | 53.04200 | -2.02400 | 27048 ft | 397 kts | 152° |
| 2026-05-07 16:04 | 53.01773 | -2.00208 | 27051 ft | 397 kts | 152° |
| 2026-05-07 16:04 | 52.99345 | -1.98019 | 27055 ft | 397 kts | 152° |
| 2026-05-07 16:05 | 52.96939 | -1.95842 | 27051 ft | 398 kts | 152° |
| 2026-05-07 16:05 | 52.94516 | -1.93643 | 27063 ft | 398 kts | 152° |
| 2026-05-07 16:05 | 52.92086 | -1.91436 | 27064 ft | 398 kts | 152° |
| 2026-05-07 16:05 | 52.89657 | -1.89224 | 27061 ft | 398 kts | 152° |
| 2026-05-07 16:06 | 52.87231 | -1.87015 | 27061 ft | 398 kts | 152° |
| 2026-05-07 16:06 | 52.84794 | -1.84804 | 27065 ft | 399 kts | 152° |
| 2026-05-07 16:06 | 52.82361 | -1.82603 | 27062 ft | 399 kts | 152° |
| 2026-05-07 16:06 | 52.79928 | -1.80401 | 27054 ft | 399 kts | 152° |
| 2026-05-07 16:07 | 52.77491 | -1.78190 | 27050 ft | 399 kts | 152° |
| 2026-05-07 16:07 | 52.75053 | -1.75979 | 27043 ft | 400 kts | 152° |
| 2026-05-07 16:07 | 52.72610 | -1.73773 | 27043 ft | 400 kts | 152° |
| 2026-05-07 16:07 | 52.70170 | -1.71578 | 27039 ft | 400 kts | 152° |
| 2026-05-07 16:08 | 52.67722 | -1.69378 | 27028 ft | 400 kts | 152° |
| 2026-05-07 16:08 | 52.65278 | -1.67181 | 27022 ft | 401 kts | 152° |
| 2026-05-07 16:08 | 52.62831 | -1.64986 | 26886 ft | 398 kts | 153° |
| 2026-05-07 16:08 | 52.60415 | -1.62821 | 26622 ft | 394 kts | 153° |
| 2026-05-07 16:09 | 52.58013 | -1.60669 | 26362 ft | 392 kts | 153° |
| 2026-05-07 16:09 | 52.55618 | -1.58522 | 26130 ft | 391 kts | 153° |
| 2026-05-07 16:09 | 52.53234 | -1.56389 | 25822 ft | 387 kts | 153° |
| 2026-05-07 16:09 | 52.50871 | -1.54278 | 25348 ft | 385 kts | 153° |
| 2026-05-07 16:10 | 52.48523 | -1.52182 | 24859 ft | 383 kts | 153° |
| 2026-05-07 16:10 | 52.46211 | -1.50124 | 24395 ft | 382 kts | 153° |
| 2026-05-07 16:10 | 52.44634 | -1.48722 | 24072 ft | 381 kts | 153° |
| 2026-05-07 16:10 | 52.41552 | -1.45987 | 23404 ft | 380 kts | 154° |
| 2026-05-07 16:11 | 52.39235 | -1.43930 | 22914 ft | 376 kts | 154° |
| 2026-05-07 16:11 | 52.36945 | -1.41902 | 22451 ft | 373 kts | 154° |
| 2026-05-07 16:11 | 52.34675 | -1.39897 | 21975 ft | 369 kts | 154° |
| 2026-05-07 16:11 | 52.33147 | -1.38550 | 21640 ft | 367 kts | 154° |
| 2026-05-07 16:12 | 52.30914 | -1.36581 | 21138 ft | 364 kts | 154° |
| 2026-05-07 16:12 | 52.28696 | -1.34622 | 20615 ft | 361 kts | 154° |
| 2026-05-07 16:12 | 52.26492 | -1.32674 | 20102 ft | 358 kts | 154° |
| 2026-05-07 16:12 | 52.24305 | -1.30747 | 19723 ft | 357 kts | 154° |
| 2026-05-07 16:13 | 52.22146 | -1.28853 | 19373 ft | 357 kts | 154° |
| 2026-05-07 16:13 | 52.19954 | -1.26933 | 19006 ft | 356 kts | 154° |
| 2026-05-07 16:13 | 52.17779 | -1.25025 | 18624 ft | 354 kts | 153° |
| 2026-05-07 16:13 | 52.15613 | -1.23126 | 18237 ft | 352 kts | 153° |
| 2026-05-07 16:14 | 52.13464 | -1.21246 | 17848 ft | 350 kts | 153° |
| 2026-05-07 16:14 | 52.11320 | -1.19377 | 17486 ft | 348 kts | 154° |
| 2026-05-07 16:14 | 52.09191 | -1.17523 | 17123 ft | 346 kts | 153° |
| 2026-05-07 16:14 | 52.07080 | -1.15679 | 16759 ft | 343 kts | 153° |
| 2026-05-07 16:15 | 52.04982 | -1.13845 | 16400 ft | 341 kts | 153° |
| 2026-05-07 16:15 | 52.02901 | -1.12030 | 16042 ft | 339 kts | 153° |
| 2026-05-07 16:15 | 52.00828 | -1.10228 | 15662 ft | 337 kts | 153° |
| 2026-05-07 16:15 | 51.98771 | -1.08442 | 15315 ft | 334 kts | 153° |
| 2026-05-07 16:16 | 51.96728 | -1.06671 | 14966 ft | 332 kts | 153° |
| 2026-05-07 16:16 | 51.94699 | -1.04872 | 14474 ft | 330 kts | 152° |
| 2026-05-07 16:16 | 51.92720 | -1.03072 | 14242 ft | 320 kts | 152° |
| 2026-05-07 16:16 | 51.90820 | -1.01325 | 14122 ft | 307 kts | 152° |
| 2026-05-07 16:17 | 51.88999 | -0.99649 | 13996 ft | 296 kts | 152° |
| 2026-05-07 16:17 | 51.87239 | -0.98034 | 13878 ft | 286 kts | 152° |
| 2026-05-07 16:17 | 51.85662 | -0.96167 | 13752 ft | 278 kts | 136° |
| 2026-05-07 16:17 | 51.84519 | -0.93698 | 13620 ft | 272 kts | 119° |
| 2026-05-07 16:18 | 51.83695 | -0.90984 | 13429 ft | 267 kts | 118° |
| 2026-05-07 16:18 | 51.82880 | -0.88304 | 13165 ft | 265 kts | 118° |
| 2026-05-07 16:18 | 51.82065 | -0.85640 | 12875 ft | 263 kts | 118° |
| 2026-05-07 16:18 | 51.81255 | -0.83000 | 12573 ft | 262 kts | 118° |
| 2026-05-07 16:19 | 51.80448 | -0.80367 | 12277 ft | 261 kts | 118° |
| 2026-05-07 16:19 | 51.79644 | -0.77744 | 11992 ft | 260 kts | 118° |
| 2026-05-07 16:19 | 51.78840 | -0.75133 | 11715 ft | 259 kts | 118° |
| 2026-05-07 16:19 | 51.78037 | -0.72534 | 11440 ft | 258 kts | 118° |
| 2026-05-07 16:20 | 51.77235 | -0.69943 | 11155 ft | 257 kts | 118° |
| 2026-05-07 16:20 | 51.76440 | -0.67368 | 10867 ft | 256 kts | 118° |
| 2026-05-07 16:20 | 51.75527 | -0.64878 | 10348 ft | 263 kts | 135° |
| 2026-05-07 16:20 | 51.74078 | -0.63382 | 10191 ft | 252 kts | 164° |
| 2026-05-07 16:21 | 51.72382 | -0.63192 | 9770 ft | 244 kts | 193° |
| 2026-05-07 16:21 | 51.70832 | -0.64235 | 9200 ft | 242 kts | 209° |
| 2026-05-07 16:21 | 51.69374 | -0.65588 | 8640 ft | 241 kts | 211° |
| 2026-05-07 16:21 | 51.67938 | -0.66963 | 8116 ft | 239 kts | 211° |
| 2026-05-07 16:22 | 51.66515 | -0.68329 | 7595 ft | 237 kts | 211° |
| 2026-05-07 16:22 | 51.65099 | -0.69684 | 7087 ft | 236 kts | 211° |
| 2026-05-07 16:22 | 51.63691 | -0.71027 | 6575 ft | 235 kts | 211° |
| 2026-05-07 16:22 | 51.62287 | -0.72361 | 6038 ft | 234 kts | 211° |
| 2026-05-07 16:23 | 51.60934 | -0.73791 | 5487 ft | 232 kts | 218° |
| 2026-05-07 16:23 | 51.59690 | -0.75443 | 5035 ft | 232 kts | 221° |
| 2026-05-07 16:23 | 51.58466 | -0.77126 | 4731 ft | 231 kts | 221° |
| 2026-05-07 16:23 | 51.57253 | -0.78802 | 4401 ft | 230 kts | 221° |
| 2026-05-07 16:24 | 51.56045 | -0.80475 | 4114 ft | 227 kts | 221° |
| 2026-05-07 16:24 | 51.54793 | -0.81916 | 3989 ft | 217 kts | 201° |
| 2026-05-07 16:24 | 51.53341 | -0.82333 | 3856 ft | 208 kts | 183° |
| 2026-05-07 16:24 | 51.51920 | -0.82415 | 3726 ft | 200 kts | 181° |
| 2026-05-07 16:25 | 51.50558 | -0.82385 | 3591 ft | 192 kts | 168° |
| 2026-05-07 16:25 | 51.49357 | -0.81528 | 3374 ft | 189 kts | 144° |
| 2026-05-07 16:25 | 51.48420 | -0.80093 | 3215 ft | 184 kts | 125° |
| 2026-05-07 16:25 | 51.47835 | -0.78334 | 3132 ft | 174 kts | 108° |
| 2026-05-07 16:26 | 51.47608 | -0.76465 | 3049 ft | 169 kts | 91° |
| 2026-05-07 16:26 | 51.47613 | -0.74587 | 2998 ft | 167 kts | 88° |
| 2026-05-07 16:26 | 51.47624 | -0.72747 | 2988 ft | 168 kts | 88° |
| 2026-05-07 16:26 | 51.47636 | -0.70882 | 2863 ft | 167 kts | 88° |
| 2026-05-07 16:27 | 51.47647 | -0.69024 | 2668 ft | 166 kts | 88° |
| 2026-05-07 16:27 | 51.47657 | -0.67176 | 2458 ft | 166 kts | 88° |
| 2026-05-07 16:27 | 51.47668 | -0.65334 | 2238 ft | 165 kts | 88° |
| 2026-05-07 16:27 | 51.47678 | -0.63469 | 2011 ft | 165 kts | 88° |
| 2026-05-07 16:28 | 51.47687 | -0.61656 | 1792 ft | 164 kts | 88° |
| 2026-05-07 16:28 | 51.47696 | -0.59965 | 1585 ft | 164 kts | 88° |
| 2026-05-07 16:28 | 51.47705 | -0.58105 | 1357 ft | 162 kts | 88° |
| 2026-05-07 16:28 | 51.47713 | -0.56352 | 1124 ft | 151 kts | 88° |
| 2026-05-07 16:29 | 51.47723 | -0.54730 | 909 ft | 140 kts | 89° |
| 2026-05-07 16:29 | 51.47735 | -0.53206 | 705 ft | 130 kts | 89° |
| 2026-05-07 16:29 | 51.47734 | -0.51811 | 509 ft | 124 kts | 90° |
| 2026-05-07 16:29 | 51.47741 | -0.50410 | 364 ft | 124 kts | 89° |
| 2026-05-07 16:30 | 51.47755 | -0.49039 | 197 ft | 122 kts | 92° |
| 2026-05-07 16:30 | 51.47751 | -0.47694 | 91 ft | 115 kts | 90° |
| 2026-05-07 16:30 | 51.47755 | -0.46672 | 93 ft | 53 kts | 90° |
| 2026-05-07 16:30 | 51.47758 | -0.46362 | 91 ft | 24 kts | 90° |
| 2026-05-07 16:31 | 51.47685 | -0.46130 | 87 ft | 25 kts | 143° |
| 2026-05-07 16:31 | 51.47591 | -0.46135 | 87 ft | 16 kts | 274° |
| 2026-05-07 16:31 | 51.47593 | -0.46336 | 87 ft | 20 kts | 269° |
| 2026-05-07 16:31 | 51.47592 | -0.46550 | 87 ft | 18 kts | 270° |
| 2026-05-07 16:32 | 51.47591 | -0.46768 | 87 ft | 21 kts | 270° |
| 2026-05-07 16:32 | 51.47582 | -0.47020 | 91 ft | 24 kts | 269° |
| 2026-05-07 16:32 | 51.47581 | -0.47267 | 91 ft | 21 kts | 269° |
| 2026-05-07 16:32 | 51.47580 | -0.47520 | 90 ft | 23 kts | 271° |
| 2026-05-07 16:33 | 51.47579 | -0.47770 | 88 ft | 23 kts | 270° |
| 2026-05-07 16:33 | 51.47579 | -0.47984 | 88 ft | 20 kts | 269° |
| 2026-05-07 16:33 | 51.47578 | -0.48215 | 88 ft | 22 kts | 269° |
| 2026-05-07 16:33 | 51.47571 | -0.48439 | 88 ft | 17 kts | 246° |
| 2026-05-07 16:34 | 51.47465 | -0.48478 | 87 ft | 14 kts | 180° |
| 2026-05-07 16:34 | 51.47406 | -0.48490 | 87 ft | 7 kts | 222° |
| 2026-05-07 16:34 | 51.47399 | -0.48551 | 87 ft | 4 kts | 270° |
| 2026-05-07 16:34 | 51.47399 | -0.48583 | 88 ft | 1 kts | 270° |
| 2026-05-07 16:35 | 51.47399 | -0.48590 | 87 ft | 0 kts | 270° |